sensor_id;sensor_type;location;lat;lon;timestamp;P1;durP1;ratioP1;P2;durP2;ratioP2
55069;SDS011;40967;52.070;8.596;2023-12-14T00:00:28;3.00;;;1.63;;
55069;SDS011;40967;52.070;8.596;2023-12-14T00:02:55;3.63;;;1.80;;
55069;SDS011;40967;52.070;8.596;2023-12-14T00:05:22;3.65;;;1.90;;
55069;SDS011;40967;52.070;8.596;2023-12-14T00:07:49;3.30;;;1.80;;
55069;SDS011;40967;52.070;8.596;2023-12-14T00:10:19;3.70;;;2.00;;
55069;SDS011;40967;52.070;8.596;2023-12-14T00:12:46;4.03;;;2.00;;
55069;SDS011;40967;52.070;8.596;2023-12-14T00:15:15;3.92;;;2.05;;
55069;SDS011;40967;52.070;8.596;2023-12-14T00:17:44;4.00;;;2.10;;
55069;SDS011;40967;52.070;8.596;2023-12-14T00:20:13;4.50;;;2.08;;
55069;SDS011;40967;52.070;8.596;2023-12-14T00:22:40;3.47;;;2.10;;
55069;SDS011;40967;52.070;8.596;2023-12-14T00:25:08;4.03;;;2.00;;
55069;SDS011;40967;52.070;8.596;2023-12-14T00:27:37;3.83;;;1.90;;
55069;SDS011;40967;52.070;8.596;2023-12-14T00:30:05;3.93;;;2.00;;
55069;SDS011;40967;52.070;8.596;2023-12-14T00:32:41;3.95;;;2.10;;
55069;SDS011;40967;52.070;8.596;2023-12-14T00:35:16;4.00;;;1.90;;
55069;SDS011;40967;52.070;8.596;2023-12-14T00:37:45;3.90;;;2.00;;
55069;SDS011;40967;52.070;8.596;2023-12-14T00:40:12;3.27;;;1.90;;
55069;SDS011;40967;52.070;8.596;2023-12-14T00:42:40;3.97;;;1.98;;
55069;SDS011;40967;52.070;8.596;2023-12-14T00:45:13;4.60;;;2.03;;
55069;SDS011;40967;52.070;8.596;2023-12-14T00:47:46;3.55;;;1.90;;
55069;SDS011;40967;52.070;8.596;2023-12-14T00:50:15;3.55;;;1.95;;
55069;SDS011;40967;52.070;8.596;2023-12-14T00:52:43;3.65;;;2.08;;
55069;SDS011;40967;52.070;8.596;2023-12-14T00:55:10;3.95;;;1.80;;
55069;SDS011;40967;52.070;8.596;2023-12-14T00:57:39;4.00;;;2.17;;
55069;SDS011;40967;52.070;8.596;2023-12-14T01:00:06;4.10;;;2.10;;
55069;SDS011;40967;52.070;8.596;2023-12-14T01:02:39;3.83;;;2.03;;
55069;SDS011;40967;52.070;8.596;2023-12-14T01:05:07;3.38;;;1.88;;
55069;SDS011;40967;52.070;8.596;2023-12-14T01:07:37;3.83;;;2.22;;
55069;SDS011;40967;52.070;8.596;2023-12-14T01:10:04;3.45;;;2.05;;
55069;SDS011;40967;52.070;8.596;2023-12-14T01:12:32;3.80;;;2.13;;
55069;SDS011;40967;52.070;8.596;2023-12-14T01:15:01;3.47;;;1.90;;
55069;SDS011;40967;52.070;8.596;2023-12-14T01:17:30;2.72;;;1.60;;
55069;SDS011;40967;52.070;8.596;2023-12-14T01:20:02;4.03;;;1.87;;
55069;SDS011;40967;52.070;8.596;2023-12-14T01:22:31;4.10;;;2.10;;
55069;SDS011;40967;52.070;8.596;2023-12-14T01:24:59;3.38;;;1.90;;
55069;SDS011;40967;52.070;8.596;2023-12-14T01:27:26;3.47;;;1.87;;
55069;SDS011;40967;52.070;8.596;2023-12-14T01:29:53;3.50;;;1.95;;
55069;SDS011;40967;52.070;8.596;2023-12-14T01:32:22;3.30;;;1.80;;
55069;SDS011;40967;52.070;8.596;2023-12-14T01:34:50;3.42;;;1.80;;
55069;SDS011;40967;52.070;8.596;2023-12-14T01:37:17;3.70;;;1.77;;
55069;SDS011;40967;52.070;8.596;2023-12-14T01:39:45;2.83;;;1.58;;
55069;SDS011;40967;52.070;8.596;2023-12-14T01:42:13;3.05;;;1.70;;
55069;SDS011;40967;52.070;8.596;2023-12-14T01:44:46;3.72;;;1.98;;
55069;SDS011;40967;52.070;8.596;2023-12-14T01:47:15;3.53;;;1.70;;
55069;SDS011;40967;52.070;8.596;2023-12-14T01:49:42;2.90;;;1.60;;
55069;SDS011;40967;52.070;8.596;2023-12-14T01:52:12;3.20;;;1.83;;
55069;SDS011;40967;52.070;8.596;2023-12-14T01:54:38;3.53;;;1.90;;
55069;SDS011;40967;52.070;8.596;2023-12-14T01:57:07;3.20;;;1.83;;
55069;SDS011;40967;52.070;8.596;2023-12-14T01:59:36;3.50;;;1.92;;
55069;SDS011;40967;52.070;8.596;2023-12-14T02:02:03;3.22;;;1.75;;
55069;SDS011;40967;52.070;8.596;2023-12-14T02:04:33;3.28;;;1.80;;
55069;SDS011;40967;52.070;8.596;2023-12-14T02:07:00;3.20;;;1.85;;
55069;SDS011;40967;52.070;8.596;2023-12-14T02:09:27;2.80;;;1.60;;
55069;SDS011;40967;52.070;8.596;2023-12-14T02:11:54;3.33;;;1.73;;
55069;SDS011;40967;52.070;8.596;2023-12-14T02:14:23;2.88;;;1.65;;
55069;SDS011;40967;52.070;8.596;2023-12-14T02:16:50;3.20;;;1.80;;
55069;SDS011;40967;52.070;8.596;2023-12-14T02:19:17;2.30;;;1.35;;
55069;SDS011;40967;52.070;8.596;2023-12-14T02:21:47;2.45;;;1.40;;
55069;SDS011;40967;52.070;8.596;2023-12-14T02:24:17;2.40;;;1.30;;
55069;SDS011;40967;52.070;8.596;2023-12-14T02:26:47;2.92;;;1.50;;
55069;SDS011;40967;52.070;8.596;2023-12-14T02:29:14;2.92;;;1.40;;
55069;SDS011;40967;52.070;8.596;2023-12-14T02:31:41;2.73;;;1.33;;
55069;SDS011;40967;52.070;8.596;2023-12-14T02:34:08;2.90;;;1.55;;
55069;SDS011;40967;52.070;8.596;2023-12-14T02:36:40;3.72;;;1.80;;
55069;SDS011;40967;52.070;8.596;2023-12-14T02:39:13;3.17;;;1.60;;
55069;SDS011;40967;52.070;8.596;2023-12-14T02:41:42;3.03;;;1.58;;
55069;SDS011;40967;52.070;8.596;2023-12-14T02:44:13;3.70;;;1.90;;
55069;SDS011;40967;52.070;8.596;2023-12-14T02:46:41;3.88;;;2.00;;
55069;SDS011;40967;52.070;8.596;2023-12-14T02:49:09;3.60;;;2.00;;
55069;SDS011;40967;52.070;8.596;2023-12-14T02:51:36;3.70;;;2.15;;
55069;SDS011;40967;52.070;8.596;2023-12-14T02:54:06;3.97;;;2.20;;
55069;SDS011;40967;52.070;8.596;2023-12-14T02:56:36;3.72;;;2.15;;
55069;SDS011;40967;52.070;8.596;2023-12-14T02:59:04;4.40;;;2.53;;
55069;SDS011;40967;52.070;8.596;2023-12-14T03:01:32;3.63;;;2.10;;
55069;SDS011;40967;52.070;8.596;2023-12-14T03:03:59;4.40;;;2.55;;
55069;SDS011;40967;52.070;8.596;2023-12-14T03:06:27;4.20;;;2.00;;
55069;SDS011;40967;52.070;8.596;2023-12-14T03:09:02;4.05;;;2.30;;
55069;SDS011;40967;52.070;8.596;2023-12-14T03:11:30;4.45;;;2.33;;
55069;SDS011;40967;52.070;8.596;2023-12-14T03:13:58;3.95;;;2.30;;
55069;SDS011;40967;52.070;8.596;2023-12-14T03:16:27;4.72;;;2.70;;
55069;SDS011;40967;52.070;8.596;2023-12-14T03:18:55;4.18;;;2.40;;
55069;SDS011;40967;52.070;8.596;2023-12-14T03:21:23;4.47;;;2.60;;
55069;SDS011;40967;52.070;8.596;2023-12-14T03:23:51;4.47;;;2.63;;
55069;SDS011;40967;52.070;8.596;2023-12-14T03:26:21;5.07;;;2.83;;
55069;SDS011;40967;52.070;8.596;2023-12-14T03:28:48;4.80;;;2.80;;
55069;SDS011;40967;52.070;8.596;2023-12-14T03:31:19;5.38;;;3.03;;
55069;SDS011;40967;52.070;8.596;2023-12-14T03:33:51;4.53;;;2.70;;
55069;SDS011;40967;52.070;8.596;2023-12-14T03:36:18;4.68;;;2.83;;
55069;SDS011;40967;52.070;8.596;2023-12-14T03:38:48;4.57;;;2.60;;
55069;SDS011;40967;52.070;8.596;2023-12-14T03:41:16;3.80;;;2.20;;
55069;SDS011;40967;52.070;8.596;2023-12-14T03:43:44;4.07;;;2.30;;
55069;SDS011;40967;52.070;8.596;2023-12-14T03:46:11;4.22;;;2.55;;
55069;SDS011;40967;52.070;8.596;2023-12-14T03:48:38;4.78;;;2.70;;
55069;SDS011;40967;52.070;8.596;2023-12-14T03:51:07;4.55;;;2.75;;
55069;SDS011;40967;52.070;8.596;2023-12-14T03:53:34;4.60;;;2.70;;
55069;SDS011;40967;52.070;8.596;2023-12-14T03:56:08;4.03;;;2.22;;
55069;SDS011;40967;52.070;8.596;2023-12-14T03:58:35;3.83;;;2.28;;
55069;SDS011;40967;52.070;8.596;2023-12-14T04:01:08;4.20;;;2.20;;
55069;SDS011;40967;52.070;8.596;2023-12-14T04:03:43;4.10;;;2.25;;
55069;SDS011;40967;52.070;8.596;2023-12-14T04:06:16;3.88;;;2.38;;
55069;SDS011;40967;52.070;8.596;2023-12-14T04:08:51;5.25;;;2.92;;
55069;SDS011;40967;52.070;8.596;2023-12-14T04:11:18;4.87;;;2.83;;
55069;SDS011;40967;52.070;8.596;2023-12-14T04:13:45;3.85;;;2.38;;
55069;SDS011;40967;52.070;8.596;2023-12-14T04:16:15;4.40;;;2.50;;
55069;SDS011;40967;52.070;8.596;2023-12-14T04:18:46;4.10;;;2.40;;
55069;SDS011;40967;52.070;8.596;2023-12-14T04:21:17;4.30;;;2.45;;
55069;SDS011;40967;52.070;8.596;2023-12-14T04:23:45;4.80;;;2.60;;
55069;SDS011;40967;52.070;8.596;2023-12-14T04:26:13;4.50;;;2.58;;
55069;SDS011;40967;52.070;8.596;2023-12-14T04:28:41;4.75;;;2.83;;
55069;SDS011;40967;52.070;8.596;2023-12-14T04:31:11;4.95;;;2.85;;
55069;SDS011;40967;52.070;8.596;2023-12-14T04:33:39;5.50;;;3.22;;
55069;SDS011;40967;52.070;8.596;2023-12-14T04:36:06;5.55;;;3.20;;
55069;SDS011;40967;52.070;8.596;2023-12-14T04:38:36;5.32;;;3.42;;
55069;SDS011;40967;52.070;8.596;2023-12-14T04:41:06;5.73;;;3.23;;
55069;SDS011;40967;52.070;8.596;2023-12-14T04:43:36;5.40;;;3.40;;
55069;SDS011;40967;52.070;8.596;2023-12-14T04:46:03;5.75;;;3.20;;
55069;SDS011;40967;52.070;8.596;2023-12-14T04:48:31;5.80;;;3.35;;
55069;SDS011;40967;52.070;8.596;2023-12-14T04:50:59;6.25;;;3.75;;
55069;SDS011;40967;52.070;8.596;2023-12-14T04:53:26;6.65;;;3.72;;
55069;SDS011;40967;52.070;8.596;2023-12-14T04:55:55;6.90;;;3.80;;
55069;SDS011;40967;52.070;8.596;2023-12-14T04:58:22;6.30;;;4.00;;
55069;SDS011;40967;52.070;8.596;2023-12-14T05:00:48;6.43;;;4.10;;
55069;SDS011;40967;52.070;8.596;2023-12-14T05:03:19;6.60;;;3.90;;
55069;SDS011;40967;52.070;8.596;2023-12-14T05:05:49;5.75;;;3.10;;
55069;SDS011;40967;52.070;8.596;2023-12-14T05:08:16;6.07;;;4.00;;
55069;SDS011;40967;52.070;8.596;2023-12-14T05:10:45;7.22;;;4.22;;
55069;SDS011;40967;52.070;8.596;2023-12-14T05:13:17;7.38;;;4.47;;
55069;SDS011;40967;52.070;8.596;2023-12-14T05:15:46;7.25;;;4.25;;
55069;SDS011;40967;52.070;8.596;2023-12-14T05:18:13;7.43;;;4.32;;
55069;SDS011;40967;52.070;8.596;2023-12-14T05:20:40;6.75;;;4.32;;
55069;SDS011;40967;52.070;8.596;2023-12-14T05:23:08;6.32;;;4.20;;
55069;SDS011;40967;52.070;8.596;2023-12-14T05:25:35;6.18;;;3.65;;
55069;SDS011;40967;52.070;8.596;2023-12-14T05:28:05;6.20;;;3.63;;
55069;SDS011;40967;52.070;8.596;2023-12-14T05:30:36;6.15;;;3.88;;
55069;SDS011;40967;52.070;8.596;2023-12-14T05:33:03;6.00;;;3.97;;
55069;SDS011;40967;52.070;8.596;2023-12-14T05:35:30;5.55;;;3.55;;
55069;SDS011;40967;52.070;8.596;2023-12-14T05:37:59;5.85;;;3.78;;
55069;SDS011;40967;52.070;8.596;2023-12-14T05:40:28;5.88;;;3.47;;
55069;SDS011;40967;52.070;8.596;2023-12-14T05:42:55;5.30;;;3.30;;
55069;SDS011;40967;52.070;8.596;2023-12-14T05:45:22;5.45;;;3.55;;
55069;SDS011;40967;52.070;8.596;2023-12-14T05:47:50;5.18;;;3.22;;
55069;SDS011;40967;52.070;8.596;2023-12-14T05:50:17;5.00;;;3.00;;
55069;SDS011;40967;52.070;8.596;2023-12-14T05:52:44;4.88;;;2.83;;
55069;SDS011;40967;52.070;8.596;2023-12-14T05:55:11;4.60;;;2.83;;
55069;SDS011;40967;52.070;8.596;2023-12-14T05:57:38;5.00;;;3.00;;
55069;SDS011;40967;52.070;8.596;2023-12-14T06:00:13;4.40;;;2.80;;
55069;SDS011;40967;52.070;8.596;2023-12-14T06:02:42;4.60;;;2.70;;
55069;SDS011;40967;52.070;8.596;2023-12-14T06:05:11;4.53;;;2.70;;
55069;SDS011;40967;52.070;8.596;2023-12-14T06:07:40;4.47;;;2.60;;
55069;SDS011;40967;52.070;8.596;2023-12-14T06:10:07;4.75;;;2.85;;
55069;SDS011;40967;52.070;8.596;2023-12-14T06:12:34;4.07;;;2.53;;
55069;SDS011;40967;52.070;8.596;2023-12-14T06:15:01;4.53;;;2.70;;
55069;SDS011;40967;52.070;8.596;2023-12-14T06:17:28;4.72;;;2.78;;
55069;SDS011;40967;52.070;8.596;2023-12-14T06:19:58;4.90;;;2.73;;
55069;SDS011;40967;52.070;8.596;2023-12-14T06:22:27;4.50;;;2.70;;
55069;SDS011;40967;52.070;8.596;2023-12-14T06:24:55;5.03;;;2.83;;
55069;SDS011;40967;52.070;8.596;2023-12-14T06:27:24;5.07;;;3.00;;
55069;SDS011;40967;52.070;8.596;2023-12-14T06:29:51;5.35;;;3.05;;
55069;SDS011;40967;52.070;8.596;2023-12-14T06:32:18;5.23;;;3.37;;
55069;SDS011;40967;52.070;8.596;2023-12-14T06:34:46;4.82;;;3.10;;
55069;SDS011;40967;52.070;8.596;2023-12-14T06:37:13;5.40;;;3.33;;
55069;SDS011;40967;52.070;8.596;2023-12-14T06:39:42;5.67;;;3.20;;
55069;SDS011;40967;52.070;8.596;2023-12-14T06:42:11;6.35;;;3.55;;
55069;SDS011;40967;52.070;8.596;2023-12-14T06:44:38;5.90;;;3.70;;
55069;SDS011;40967;52.070;8.596;2023-12-14T06:47:05;5.80;;;3.70;;
55069;SDS011;40967;52.070;8.596;2023-12-14T06:49:32;5.25;;;3.10;;
55069;SDS011;40967;52.070;8.596;2023-12-14T06:52:03;5.75;;;3.35;;
55069;SDS011;40967;52.070;8.596;2023-12-14T06:54:31;5.63;;;3.50;;
55069;SDS011;40967;52.070;8.596;2023-12-14T06:57:01;5.13;;;3.15;;
55069;SDS011;40967;52.070;8.596;2023-12-14T06:59:28;5.35;;;3.30;;
55069;SDS011;40967;52.070;8.596;2023-12-14T07:02:04;4.88;;;3.03;;
55069;SDS011;40967;52.070;8.596;2023-12-14T07:04:31;4.93;;;3.08;;
55069;SDS011;40967;52.070;8.596;2023-12-14T07:06:58;5.88;;;3.70;;
55069;SDS011;40967;52.070;8.596;2023-12-14T07:09:25;5.60;;;3.45;;
55069;SDS011;40967;52.070;8.596;2023-12-14T07:11:53;5.43;;;3.53;;
55069;SDS011;40967;52.070;8.596;2023-12-14T07:14:28;5.93;;;3.83;;
55069;SDS011;40967;52.070;8.596;2023-12-14T07:16:55;5.90;;;3.65;;
55069;SDS011;40967;52.070;8.596;2023-12-14T07:19:23;5.32;;;3.33;;
55069;SDS011;40967;52.070;8.596;2023-12-14T07:21:51;5.60;;;3.25;;
55069;SDS011;40967;52.070;8.596;2023-12-14T07:24:19;5.07;;;3.17;;
55069;SDS011;40967;52.070;8.596;2023-12-14T07:26:46;4.97;;;3.10;;
55069;SDS011;40967;52.070;8.596;2023-12-14T07:29:14;5.22;;;3.20;;
55069;SDS011;40967;52.070;8.596;2023-12-14T07:31:43;4.80;;;3.00;;
55069;SDS011;40967;52.070;8.596;2023-12-14T07:34:13;5.07;;;3.30;;
55069;SDS011;40967;52.070;8.596;2023-12-14T07:36:40;5.20;;;3.20;;
55069;SDS011;40967;52.070;8.596;2023-12-14T07:39:07;6.35;;;3.90;;
55069;SDS011;40967;52.070;8.596;2023-12-14T07:41:36;5.60;;;3.43;;
55069;SDS011;40967;52.070;8.596;2023-12-14T07:44:04;6.22;;;4.10;;
55069;SDS011;40967;52.070;8.596;2023-12-14T07:46:32;5.70;;;3.65;;
55069;SDS011;40967;52.070;8.596;2023-12-14T07:49:01;5.32;;;3.75;;
55069;SDS011;40967;52.070;8.596;2023-12-14T07:51:31;6.43;;;4.28;;
55069;SDS011;40967;52.070;8.596;2023-12-14T07:53:58;6.18;;;3.97;;
55069;SDS011;40967;52.070;8.596;2023-12-14T07:56:29;6.50;;;4.30;;
55069;SDS011;40967;52.070;8.596;2023-12-14T07:58:58;6.22;;;3.72;;
55069;SDS011;40967;52.070;8.596;2023-12-14T08:01:26;5.90;;;3.78;;
55069;SDS011;40967;52.070;8.596;2023-12-14T08:04:09;5.95;;;3.80;;
55069;SDS011;40967;52.070;8.596;2023-12-14T08:06:39;5.70;;;3.60;;
55069;SDS011;40967;52.070;8.596;2023-12-14T08:09:06;5.28;;;3.30;;
55069;SDS011;40967;52.070;8.596;2023-12-14T08:11:35;4.63;;;3.10;;
55069;SDS011;40967;52.070;8.596;2023-12-14T08:14:02;4.80;;;2.93;;
55069;SDS011;40967;52.070;8.596;2023-12-14T08:16:29;4.13;;;2.80;;
55069;SDS011;40967;52.070;8.596;2023-12-14T08:18:56;5.18;;;3.10;;
55069;SDS011;40967;52.070;8.596;2023-12-14T08:21:24;4.07;;;2.30;;
55069;SDS011;40967;52.070;8.596;2023-12-14T08:23:51;4.03;;;2.63;;
55069;SDS011;40967;52.070;8.596;2023-12-14T08:26:21;4.28;;;2.38;;
55069;SDS011;40967;52.070;8.596;2023-12-14T08:28:50;3.42;;;2.25;;
55069;SDS011;40967;52.070;8.596;2023-12-14T08:31:17;4.10;;;2.40;;
55069;SDS011;40967;52.070;8.596;2023-12-14T08:33:44;4.03;;;2.30;;
55069;SDS011;40967;52.070;8.596;2023-12-14T08:36:14;3.78;;;2.40;;
55069;SDS011;40967;52.070;8.596;2023-12-14T08:38:44;3.88;;;2.55;;
55069;SDS011;40967;52.070;8.596;2023-12-14T08:41:12;4.28;;;2.80;;
55069;SDS011;40967;52.070;8.596;2023-12-14T08:43:43;3.90;;;2.40;;
55069;SDS011;40967;52.070;8.596;2023-12-14T08:46:10;3.83;;;2.40;;
55069;SDS011;40967;52.070;8.596;2023-12-14T08:48:38;3.90;;;2.47;;
55069;SDS011;40967;52.070;8.596;2023-12-14T08:51:05;3.65;;;2.42;;
55069;SDS011;40967;52.070;8.596;2023-12-14T08:53:45;3.80;;;2.65;;
55069;SDS011;40967;52.070;8.596;2023-12-14T08:56:14;3.85;;;2.47;;
55069;SDS011;40967;52.070;8.596;2023-12-14T08:58:44;4.03;;;2.60;;
55069;SDS011;40967;52.070;8.596;2023-12-14T09:01:19;3.78;;;2.40;;
55069;SDS011;40967;52.070;8.596;2023-12-14T09:03:46;3.67;;;2.40;;
55069;SDS011;40967;52.070;8.596;2023-12-14T09:12:22;3.93;;;2.50;;
55069;SDS011;40967;52.070;8.596;2023-12-14T09:14:50;3.45;;;2.35;;
55069;SDS011;40967;52.070;8.596;2023-12-14T09:17:17;4.95;;;2.60;;
55069;SDS011;40967;52.070;8.596;2023-12-14T09:20:01;4.00;;;2.60;;
55069;SDS011;40967;52.070;8.596;2023-12-14T09:22:31;3.65;;;2.28;;
55069;SDS011;40967;52.070;8.596;2023-12-14T09:25:02;3.65;;;2.35;;
55069;SDS011;40967;52.070;8.596;2023-12-14T09:27:34;3.67;;;2.30;;
55069;SDS011;40967;52.070;8.596;2023-12-14T09:30:01;3.30;;;2.10;;
55069;SDS011;40967;52.070;8.596;2023-12-14T09:32:29;3.95;;;2.35;;
55069;SDS011;40967;52.070;8.596;2023-12-14T09:34:59;3.90;;;2.40;;
55069;SDS011;40967;52.070;8.596;2023-12-14T09:37:45;3.75;;;2.50;;
55069;SDS011;40967;52.070;8.596;2023-12-14T09:40:16;3.88;;;2.47;;
55069;SDS011;40967;52.070;8.596;2023-12-14T09:42:44;3.90;;;2.60;;
55069;SDS011;40967;52.070;8.596;2023-12-14T09:45:11;4.88;;;3.20;;
55069;SDS011;40967;52.070;8.596;2023-12-14T09:47:38;5.20;;;3.45;;
55069;SDS011;40967;52.070;8.596;2023-12-14T09:50:08;4.50;;;2.90;;
55069;SDS011;40967;52.070;8.596;2023-12-14T09:52:44;5.15;;;3.22;;
55069;SDS011;40967;52.070;8.596;2023-12-14T09:55:15;5.30;;;3.42;;
55069;SDS011;40967;52.070;8.596;2023-12-14T09:57:44;4.57;;;3.35;;
55069;SDS011;40967;52.070;8.596;2023-12-14T10:00:12;6.23;;;3.80;;
55069;SDS011;40967;52.070;8.596;2023-12-14T10:02:40;5.85;;;3.72;;
55069;SDS011;40967;52.070;8.596;2023-12-14T10:05:11;5.03;;;3.40;;
55069;SDS011;40967;52.070;8.596;2023-12-14T10:07:44;4.97;;;3.30;;
55069;SDS011;40967;52.070;8.596;2023-12-14T10:10:13;4.47;;;3.08;;
55069;SDS011;40967;52.070;8.596;2023-12-14T10:12:51;4.97;;;3.25;;
55069;SDS011;40967;52.070;8.596;2023-12-14T10:15:20;6.28;;;4.13;;
55069;SDS011;40967;52.070;8.596;2023-12-14T10:17:51;5.72;;;3.72;;
55069;SDS011;40967;52.070;8.596;2023-12-14T10:20:19;5.55;;;3.88;;
55069;SDS011;40967;52.070;8.596;2023-12-14T10:22:48;4.97;;;3.40;;
55069;SDS011;40967;52.070;8.596;2023-12-14T10:25:16;5.22;;;3.72;;
55069;SDS011;40967;52.070;8.596;2023-12-14T10:27:46;4.93;;;3.28;;
55069;SDS011;40967;52.070;8.596;2023-12-14T10:30:15;4.78;;;3.40;;
55069;SDS011;40967;52.070;8.596;2023-12-14T10:32:43;5.13;;;3.42;;
55069;SDS011;40967;52.070;8.596;2023-12-14T10:35:11;4.93;;;3.33;;
55069;SDS011;40967;52.070;8.596;2023-12-14T10:37:42;5.28;;;3.63;;
55069;SDS011;40967;52.070;8.596;2023-12-14T10:40:11;5.20;;;3.50;;
55069;SDS011;40967;52.070;8.596;2023-12-14T10:42:41;5.57;;;3.97;;
55069;SDS011;40967;52.070;8.596;2023-12-14T10:45:12;6.20;;;4.07;;
55069;SDS011;40967;52.070;8.596;2023-12-14T10:47:56;5.85;;;3.97;;
55069;SDS011;40967;52.070;8.596;2023-12-14T10:50:27;5.80;;;3.80;;
55069;SDS011;40967;52.070;8.596;2023-12-14T10:52:55;5.20;;;3.55;;
55069;SDS011;40967;52.070;8.596;2023-12-14T10:55:25;5.30;;;3.55;;
55069;SDS011;40967;52.070;8.596;2023-12-14T10:57:57;5.20;;;3.30;;
55069;SDS011;40967;52.070;8.596;2023-12-14T11:00:29;5.30;;;3.45;;
55069;SDS011;40967;52.070;8.596;2023-12-14T11:02:58;5.55;;;3.78;;
55069;SDS011;40967;52.070;8.596;2023-12-14T11:05:27;5.40;;;3.65;;
55069;SDS011;40967;52.070;8.596;2023-12-14T11:07:59;4.90;;;3.40;;
55069;SDS011;40967;52.070;8.596;2023-12-14T11:10:37;4.90;;;3.22;;
55069;SDS011;40967;52.070;8.596;2023-12-14T11:13:07;5.05;;;3.40;;
55069;SDS011;40967;52.070;8.596;2023-12-14T11:15:40;4.57;;;3.28;;
55069;SDS011;40967;52.070;8.596;2023-12-14T11:18:28;4.85;;;3.20;;
55069;SDS011;40967;52.070;8.596;2023-12-14T11:20:58;4.68;;;3.08;;
55069;SDS011;40967;52.070;8.596;2023-12-14T11:23:29;5.13;;;3.40;;
55069;SDS011;40967;52.070;8.596;2023-12-14T11:26:02;5.10;;;3.25;;
55069;SDS011;40967;52.070;8.596;2023-12-14T11:28:31;4.72;;;3.17;;
55069;SDS011;40967;52.070;8.596;2023-12-14T11:31:18;4.53;;;2.83;;
55069;SDS011;40967;52.070;8.596;2023-12-14T11:33:48;4.43;;;2.85;;
55069;SDS011;40967;52.070;8.596;2023-12-14T11:36:15;4.32;;;2.90;;
55069;SDS011;40967;52.070;8.596;2023-12-14T11:38:43;4.15;;;2.80;;
55069;SDS011;40967;52.070;8.596;2023-12-14T11:41:13;3.95;;;2.50;;
55069;SDS011;40967;52.070;8.596;2023-12-14T11:43:41;3.80;;;2.47;;
55069;SDS011;40967;52.070;8.596;2023-12-14T11:46:13;3.80;;;2.47;;
55069;SDS011;40967;52.070;8.596;2023-12-14T11:48:44;3.33;;;2.20;;
55069;SDS011;40967;52.070;8.596;2023-12-14T11:51:25;3.65;;;2.30;;
55069;SDS011;40967;52.070;8.596;2023-12-14T11:53:55;3.65;;;2.20;;
55069;SDS011;40967;52.070;8.596;2023-12-14T11:56:25;3.50;;;2.30;;
55069;SDS011;40967;52.070;8.596;2023-12-14T11:58:52;3.22;;;2.15;;
55069;SDS011;40967;52.070;8.596;2023-12-14T12:01:22;3.50;;;2.15;;
55069;SDS011;40967;52.070;8.596;2023-12-14T12:03:53;3.70;;;2.30;;
55069;SDS011;40967;52.070;8.596;2023-12-14T12:06:21;3.05;;;1.90;;
55069;SDS011;40967;52.070;8.596;2023-12-14T12:08:49;3.97;;;2.20;;
55069;SDS011;40967;52.070;8.596;2023-12-14T12:11:18;3.42;;;2.10;;
55069;SDS011;40967;52.070;8.596;2023-12-14T12:13:50;3.50;;;2.28;;
55069;SDS011;40967;52.070;8.596;2023-12-14T12:16:18;3.45;;;2.20;;
55069;SDS011;40967;52.070;8.596;2023-12-14T12:19:05;3.30;;;2.03;;
55069;SDS011;40967;52.070;8.596;2023-12-14T12:21:32;3.53;;;2.08;;
55069;SDS011;40967;52.070;8.596;2023-12-14T12:23:59;3.35;;;2.03;;
55069;SDS011;40967;52.070;8.596;2023-12-14T12:26:28;3.37;;;2.10;;
55069;SDS011;40967;52.070;8.596;2023-12-14T12:29:01;3.08;;;1.90;;
55069;SDS011;40967;52.070;8.596;2023-12-14T12:31:31;3.37;;;2.00;;
55069;SDS011;40967;52.070;8.596;2023-12-14T12:33:58;3.72;;;2.28;;
55069;SDS011;40967;52.070;8.596;2023-12-14T12:36:27;3.47;;;2.13;;
55069;SDS011;40967;52.070;8.596;2023-12-14T12:39:02;3.25;;;2.10;;
55069;SDS011;40967;52.070;8.596;2023-12-14T12:41:34;3.92;;;2.30;;
55069;SDS011;40967;52.070;8.596;2023-12-14T12:44:03;3.60;;;2.20;;
55069;SDS011;40967;52.070;8.596;2023-12-14T12:46:38;3.38;;;2.15;;
55069;SDS011;40967;52.070;8.596;2023-12-14T12:49:06;3.65;;;2.40;;
55069;SDS011;40967;52.070;8.596;2023-12-14T12:51:34;3.78;;;2.28;;
55069;SDS011;40967;52.070;8.596;2023-12-14T12:54:01;3.50;;;2.07;;
55069;SDS011;40967;52.070;8.596;2023-12-14T12:56:29;3.53;;;2.17;;
55069;SDS011;40967;52.070;8.596;2023-12-14T13:05:40;2.67;;;1.75;;
55069;SDS011;40967;52.070;8.596;2023-12-14T13:08:11;3.20;;;1.90;;
55069;SDS011;40967;52.070;8.596;2023-12-14T13:10:40;2.63;;;1.65;;
55069;SDS011;40967;52.070;8.596;2023-12-14T13:13:11;3.30;;;2.00;;
55069;SDS011;40967;52.070;8.596;2023-12-14T13:15:39;3.28;;;1.90;;
55069;SDS011;40967;52.070;8.596;2023-12-14T13:18:11;2.97;;;1.88;;
55069;SDS011;40967;52.070;8.596;2023-12-14T13:20:41;3.33;;;1.90;;
55069;SDS011;40967;52.070;8.596;2023-12-14T13:23:19;3.85;;;2.20;;
55069;SDS011;40967;52.070;8.596;2023-12-14T13:25:46;2.20;;;1.50;;
55069;SDS011;40967;52.070;8.596;2023-12-14T13:28:13;2.90;;;1.83;;
55069;SDS011;40967;52.070;8.596;2023-12-14T13:30:41;2.88;;;1.77;;
55069;SDS011;40967;52.070;8.596;2023-12-14T13:33:10;3.00;;;1.70;;
55069;SDS011;40967;52.070;8.596;2023-12-14T13:35:40;2.72;;;1.70;;
55069;SDS011;40967;52.070;8.596;2023-12-14T13:38:08;2.40;;;1.40;;
55069;SDS011;40967;52.070;8.596;2023-12-14T13:40:42;2.40;;;1.50;;
55069;SDS011;40967;52.070;8.596;2023-12-14T13:43:10;2.80;;;1.48;;
55069;SDS011;40967;52.070;8.596;2023-12-14T13:45:43;2.75;;;1.48;;
55069;SDS011;40967;52.070;8.596;2023-12-14T13:48:11;2.65;;;1.70;;
55069;SDS011;40967;52.070;8.596;2023-12-14T13:50:39;2.90;;;1.70;;
55069;SDS011;40967;52.070;8.596;2023-12-14T13:53:08;2.27;;;1.30;;
55069;SDS011;40967;52.070;8.596;2023-12-14T14:59:08;4.28;;;2.17;;
55069;SDS011;40967;52.070;8.596;2023-12-14T15:01:36;4.67;;;2.50;;
55069;SDS011;40967;52.070;8.596;2023-12-14T15:04:03;4.80;;;2.70;;
55069;SDS011;40967;52.070;8.596;2023-12-14T15:06:30;4.88;;;3.03;;
55069;SDS011;40967;52.070;8.596;2023-12-14T15:08:57;4.93;;;2.80;;
55069;SDS011;40967;52.070;8.596;2023-12-14T15:11:24;5.38;;;2.88;;
55069;SDS011;40967;52.070;8.596;2023-12-14T15:13:50;5.38;;;3.25;;
55069;SDS011;40967;52.070;8.596;2023-12-14T15:16:25;6.68;;;3.63;;
55069;SDS011;40967;52.070;8.596;2023-12-14T15:44:22;5.15;;;3.10;;
55069;SDS011;40967;52.070;8.596;2023-12-14T15:57:42;4.35;;;2.70;;
55069;SDS011;40967;52.070;8.596;2023-12-14T16:00:13;4.05;;;2.47;;
55069;SDS011;40967;52.070;8.596;2023-12-14T16:02:51;4.25;;;2.65;;
55069;SDS011;40967;52.070;8.596;2023-12-14T16:05:21;4.70;;;2.83;;
55069;SDS011;40967;52.070;8.596;2023-12-14T16:07:48;4.70;;;2.70;;
55069;SDS011;40967;52.070;8.596;2023-12-14T16:10:23;4.23;;;2.60;;
55069;SDS011;40967;52.070;8.596;2023-12-14T16:13:40;4.78;;;2.90;;
55069;SDS011;40967;52.070;8.596;2023-12-14T16:16:08;5.00;;;3.03;;
55069;SDS011;40967;52.070;8.596;2023-12-14T16:18:55;5.60;;;3.55;;
55069;SDS011;40967;52.070;8.596;2023-12-14T16:21:36;5.65;;;3.53;;
55069;SDS011;40967;52.070;8.596;2023-12-14T16:24:32;6.15;;;3.90;;
55069;SDS011;40967;52.070;8.596;2023-12-14T16:27:17;5.90;;;3.78;;
55069;SDS011;40967;52.070;8.596;2023-12-14T16:29:47;5.97;;;3.70;;
55069;SDS011;40967;52.070;8.596;2023-12-14T16:32:20;7.00;;;4.33;;
55069;SDS011;40967;52.070;8.596;2023-12-14T16:34:59;5.43;;;3.50;;
55069;SDS011;40967;52.070;8.596;2023-12-14T16:37:40;6.37;;;3.90;;
55069;SDS011;40967;52.070;8.596;2023-12-14T16:40:08;5.53;;;3.58;;
55069;SDS011;40967;52.070;8.596;2023-12-14T16:42:38;5.83;;;3.77;;
55069;SDS011;40967;52.070;8.596;2023-12-14T16:45:14;5.85;;;3.70;;
55069;SDS011;40967;52.070;8.596;2023-12-14T16:47:41;6.22;;;4.00;;
55069;SDS011;40967;52.070;8.596;2023-12-14T16:50:14;6.22;;;4.13;;
55069;SDS011;40967;52.070;8.596;2023-12-14T16:52:48;7.03;;;4.43;;
55069;SDS011;40967;52.070;8.596;2023-12-14T16:55:17;7.07;;;4.38;;